sensor_id;sensor_type;location;lat;lon;timestamp;pressure;altitude;pressure_sealevel;temperature;humidity
50590;BME280;36547;50.514;30.840;2024-01-27T00:00:41;100000.39;;;2.46;85.29
50590;BME280;36547;50.514;30.840;2024-01-27T00:01:44;100008.26;;;2.46;85.35
50590;BME280;36547;50.514;30.840;2024-01-27T00:02:46;99996.08;;;2.45;85.37
50590;BME280;36547;50.514;30.840;2024-01-27T00:03:49;99992.52;;;2.46;85.40
50590;BME280;36547;50.514;30.840;2024-01-27T00:04:51;99999.50;;;2.47;85.28
50590;BME280;36547;50.514;30.840;2024-01-27T00:05:53;99995.98;;;2.48;85.19
50590;BME280;36547;50.514;30.840;2024-01-27T00:06:57;99996.81;;;2.50;85.16
50590;BME280;36547;50.514;30.840;2024-01-27T00:07:59;99990.77;;;2.46;85.07
50590;BME280;36547;50.514;30.840;2024-01-27T00:09:02;99991.63;;;2.47;85.12
50590;BME280;36547;50.514;30.840;2024-01-27T00:10:05;99993.45;;;2.45;85.15
50590;BME280;36547;50.514;30.840;2024-01-27T00:11:07;99990.86;;;2.43;85.28
50590;BME280;36547;50.514;30.840;2024-01-27T00:12:10;99997.03;;;2.41;85.29
50590;BME280;36547;50.514;30.840;2024-01-27T00:13:12;99993.52;;;2.42;85.38
50590;BME280;36547;50.514;30.840;2024-01-27T00:14:15;99997.86;;;2.43;85.36
50590;BME280;36547;50.514;30.840;2024-01-27T00:15:18;99997.00;;;2.42;85.39
50590;BME280;36547;50.514;30.840;2024-01-27T00:16:21;99994.34;;;2.44;85.43
50590;BME280;36547;50.514;30.840;2024-01-27T00:17:24;99995.30;;;2.40;85.35
50590;BME280;36547;50.514;30.840;2024-01-27T00:18:26;99996.08;;;2.45;85.42
50590;BME280;36547;50.514;30.840;2024-01-27T00:19:29;99996.02;;;2.46;85.25
50590;BME280;36547;50.514;30.840;2024-01-27T00:20:32;99994.23;;;2.48;85.11
50590;BME280;36547;50.514;30.840;2024-01-27T00:21:35;99994.25;;;2.47;85.10
50590;BME280;36547;50.514;30.840;2024-01-27T00:22:37;99994.28;;;2.45;85.05
50590;BME280;36547;50.514;30.840;2024-01-27T00:23:39;100000.39;;;2.46;85.10
50590;BME280;36547;50.514;30.840;2024-01-27T00:24:42;99989.91;;;2.46;85.12
50590;BME280;36547;50.514;30.840;2024-01-27T00:25:44;99993.45;;;2.45;85.16
50590;BME280;36547;50.514;30.840;2024-01-27T00:26:47;99996.97;;;2.44;85.10
50590;BME280;36547;50.514;30.840;2024-01-27T00:27:50;99985.52;;;2.46;85.04
50590;BME280;36547;50.514;30.840;2024-01-27T00:28:52;99995.23;;;2.43;84.95
50590;BME280;36547;50.514;30.840;2024-01-27T00:29:55;99986.48;;;2.44;85.03
50590;BME280;36547;50.514;30.840;2024-01-27T00:30:58;99988.20;;;2.45;85.02
50590;BME280;36547;50.514;30.840;2024-01-27T00:32:00;99987.28;;;2.46;84.99
50590;BME280;36547;50.514;30.840;2024-01-27T00:33:03;99975.99;;;2.44;84.95
50590;BME280;36547;50.514;30.840;2024-01-27T00:34:05;99988.20;;;2.45;84.99
50590;BME280;36547;50.514;30.840;2024-01-27T00:35:08;99986.48;;;2.44;84.97
50590;BME280;36547;50.514;30.840;2024-01-27T00:36:11;99987.34;;;2.44;84.98
50590;BME280;36547;50.514;30.840;2024-01-27T00:37:14;99976.86;;;2.44;84.99
50590;BME280;36547;50.514;30.840;2024-01-27T00:38:16;99987.34;;;2.44;84.93
50590;BME280;36547;50.514;30.840;2024-01-27T00:39:18;99988.27;;;2.42;84.97
50590;BME280;36547;50.514;30.840;2024-01-27T00:40:21;99977.84;;;2.39;84.98
50590;BME280;36547;50.514;30.840;2024-01-27T00:41:23;99976.91;;;2.41;85.08
50590;BME280;36547;50.514;30.840;2024-01-27T00:42:26;99989.22;;;2.38;85.04
50590;BME280;36547;50.514;30.840;2024-01-27T00:43:28;99979.63;;;2.37;85.18
50590;BME280;36547;50.514;30.840;2024-01-27T00:44:31;99986.54;;;2.41;85.21
50590;BME280;36547;50.514;30.840;2024-01-27T00:45:33;99976.91;;;2.41;85.21
50590;BME280;36547;50.514;30.840;2024-01-27T00:46:38;99978.67;;;2.41;85.24
50590;BME280;36547;50.514;30.840;2024-01-27T00:47:54;99975.75;;;2.55;85.30
50590;BME280;36547;50.514;30.840;2024-01-27T00:48:56;99972.63;;;2.37;85.35
50590;BME280;36547;50.514;30.840;2024-01-27T00:49:59;99970.80;;;2.41;85.39
50590;BME280;36547;50.514;30.840;2024-01-27T00:51:02;99972.53;;;2.42;85.32
50590;BME280;36547;50.514;30.840;2024-01-27T00:52:05;99967.30;;;2.42;85.27
50590;BME280;36547;50.514;30.840;2024-01-27T00:53:07;99977.75;;;2.43;85.31
50590;BME280;36547;50.514;30.840;2024-01-27T00:54:10;99969.02;;;2.43;85.31
50590;BME280;36547;50.514;30.840;2024-01-27T00:55:13;99969.91;;;2.42;85.27
50590;BME280;36547;50.514;30.840;2024-01-27T00:56:16;99970.77;;;2.42;85.20
50590;BME280;36547;50.514;30.840;2024-01-27T00:57:18;99974.27;;;2.43;85.20
50590;BME280;36547;50.514;30.840;2024-01-27T00:58:22;99983.08;;;2.39;85.24
50590;BME280;36547;50.514;30.840;2024-01-27T00:59:24;99974.32;;;2.40;85.34
50590;BME280;36547;50.514;30.840;2024-01-27T01:00:28;99976.94;;;2.40;85.41
50590;BME280;36547;50.514;30.840;2024-01-27T01:01:30;99975.25;;;2.37;85.45
50590;BME280;36547;50.514;30.840;2024-01-27T01:02:32;99983.14;;;2.36;85.46
50590;BME280;36547;50.514;30.840;2024-01-27T01:03:34;99981.38;;;2.36;85.50
50590;BME280;36547;50.514;30.840;2024-01-27T01:04:37;99990.08;;;2.38;85.51
50590;BME280;36547;50.514;30.840;2024-01-27T01:05:40;99982.19;;;2.40;85.44
50590;BME280;36547;50.514;30.840;2024-01-27T01:06:42;99983.08;;;2.39;85.42
50590;BME280;36547;50.514;30.840;2024-01-27T01:07:45;99986.59;;;2.38;85.41
50590;BME280;36547;50.514;30.840;2024-01-27T01:08:47;99983.14;;;2.36;85.51
50590;BME280;36547;50.514;30.840;2024-01-27T01:09:50;99983.97;;;2.38;85.54
50590;BME280;36547;50.514;30.840;2024-01-27T01:10:52;99981.41;;;2.35;85.52
50590;BME280;36547;50.514;30.840;2024-01-27T01:11:54;99979.68;;;2.34;85.51
50590;BME280;36547;50.514;30.840;2024-01-27T01:12:58;99977.09;;;2.32;85.53
50590;BME280;36547;50.514;30.840;2024-01-27T01:14:01;99980.60;;;2.31;85.63
50590;BME280;36547;50.514;30.840;2024-01-27T01:15:04;99982.39;;;2.31;85.73
50590;BME280;36547;50.514;30.840;2024-01-27T01:16:08;99977.18;;;2.29;85.76
50590;BME280;36547;50.514;30.840;2024-01-27T01:17:11;99985.02;;;2.31;85.81
50590;BME280;36547;50.514;30.840;2024-01-27T01:18:14;99982.39;;;2.31;85.83
50590;BME280;36547;50.514;30.840;2024-01-27T01:19:17;99988.53;;;2.30;85.83
50590;BME280;36547;50.514;30.840;2024-01-27T01:20:21;99978.05;;;2.30;85.81
50590;BME280;36547;50.514;30.840;2024-01-27T01:21:23;99989.42;;;2.29;85.86
50590;BME280;36547;50.514;30.840;2024-01-27T01:22:26;99982.33;;;2.32;85.89
50590;BME280;36547;50.514;30.840;2024-01-27T01:23:28;99992.87;;;2.31;85.81
50590;BME280;36547;50.514;30.840;2024-01-27T01:24:31;99985.82;;;2.33;85.84
50590;BME280;36547;50.514;30.840;2024-01-27T01:25:34;99973.52;;;2.36;85.83
50590;BME280;36547;50.514;30.840;2024-01-27T01:26:37;99990.11;;;2.37;85.77
50590;BME280;36547;50.514;30.840;2024-01-27T01:27:39;99980.48;;;2.37;85.74
50590;BME280;36547;50.514;30.840;2024-01-27T01:28:41;99983.17;;;2.34;85.69
50590;BME280;36547;50.514;30.840;2024-01-27T01:29:44;99984.81;;;2.40;85.76
50590;BME280;36547;50.514;30.840;2024-01-27T01:30:47;99973.52;;;2.36;85.61
50590;BME280;36547;50.514;30.840;2024-01-27T01:31:49;99983.14;;;2.36;85.57
50590;BME280;36547;50.514;30.840;2024-01-27T01:32:51;99975.25;;;2.37;85.68
50590;BME280;36547;50.514;30.840;2024-01-27T01:33:54;99978.73;;;2.38;85.73
50590;BME280;36547;50.514;30.840;2024-01-27T01:34:57;99979.63;;;2.37;85.66
50590;BME280;36547;50.514;30.840;2024-01-27T01:36:00;99979.63;;;2.37;85.60
50590;BME280;36547;50.514;30.840;2024-01-27T01:37:02;99986.63;;;2.36;85.59
50590;BME280;36547;50.514;30.840;2024-01-27T01:38:04;99980.45;;;2.39;85.63
50590;BME280;36547;50.514;30.840;2024-01-27T01:39:07;99983.08;;;2.39;85.58
50590;BME280;36547;50.514;30.840;2024-01-27T01:40:11;99977.87;;;2.37;85.50
50590;BME280;36547;50.514;30.840;2024-01-27T01:41:14;99981.35;;;2.38;85.50
50590;BME280;36547;50.514;30.840;2024-01-27T01:42:16;99977.84;;;2.39;85.46
50590;BME280;36547;50.514;30.840;2024-01-27T01:43:19;99979.63;;;2.37;85.42
50590;BME280;36547;50.514;30.840;2024-01-27T01:44:21;99978.67;;;2.41;85.47
50590;BME280;36547;50.514;30.840;2024-01-27T01:45:24;99974.23;;;2.44;85.38
50590;BME280;36547;50.514;30.840;2024-01-27T01:46:27;99975.09;;;2.45;85.21
50590;BME280;36547;50.514;30.840;2024-01-27T01:47:29;99972.48;;;2.45;85.10
50590;BME280;36547;50.514;30.840;2024-01-27T01:48:32;99969.85;;;2.45;85.04
50590;BME280;36547;50.514;30.840;2024-01-27T01:49:35;99967.23;;;2.45;84.96
50590;BME280;36547;50.514;30.840;2024-01-27T01:50:38;99967.30;;;2.42;84.94
50590;BME280;36547;50.514;30.840;2024-01-27T01:51:41;99969.88;;;2.43;84.99
50590;BME280;36547;50.514;30.840;2024-01-27T01:52:44;99965.56;;;2.41;84.95
50590;BME280;36547;50.514;30.840;2024-01-27T01:53:48;99969.08;;;2.40;84.99
50590;BME280;36547;50.514;30.840;2024-01-27T01:54:51;99967.30;;;2.42;85.02
50590;BME280;36547;50.514;30.840;2024-01-27T01:55:53;99968.22;;;2.39;84.96
50590;BME280;36547;50.514;30.840;2024-01-27T01:56:57;99968.22;;;2.39;84.95
50590;BME280;36547;50.514;30.840;2024-01-27T01:58:01;99965.56;;;2.41;84.97
50590;BME280;36547;50.514;30.840;2024-01-27T01:59:03;99970.00;;;2.37;84.92
50590;BME280;36547;50.514;30.840;2024-01-27T02:00:07;99966.45;;;2.40;84.98
50590;BME280;36547;50.514;30.840;2024-01-27T02:01:15;99965.56;;;2.41;84.89
50590;BME280;36547;50.514;30.840;2024-01-27T02:02:19;99960.31;;;2.41;84.85
50590;BME280;36547;50.514;30.840;2024-01-27T02:03:21;99962.05;;;2.42;84.75
50590;BME280;36547;50.514;30.840;2024-01-27T02:04:24;99962.13;;;2.37;84.69
50590;BME280;36547;50.514;30.840;2024-01-27T02:05:26;99970.92;;;2.35;84.72
50590;BME280;36547;50.514;30.840;2024-01-27T02:06:28;99965.63;;;2.38;84.80
50590;BME280;36547;50.514;30.840;2024-01-27T02:07:31;99972.66;;;2.36;84.70
50590;BME280;36547;50.514;30.840;2024-01-27T02:08:35;99977.89;;;2.36;84.73
50590;BME280;36547;50.514;30.840;2024-01-27T02:09:38;99972.66;;;2.36;84.79
50590;BME280;36547;50.514;30.840;2024-01-27T02:10:41;99972.66;;;2.36;84.82
50590;BME280;36547;50.514;30.840;2024-01-27T02:11:44;99971.81;;;2.34;84.80
50590;BME280;36547;50.514;30.840;2024-01-27T02:12:46;99971.78;;;2.35;84.83
50590;BME280;36547;50.514;30.840;2024-01-27T02:13:49;99968.30;;;2.35;84.75
50590;BME280;36547;50.514;30.840;2024-01-27T02:14:51;99972.66;;;2.36;84.74
50590;BME280;36547;50.514;30.840;2024-01-27T02:15:53;99971.78;;;2.35;84.71
50590;BME280;36547;50.514;30.840;2024-01-27T02:16:57;99975.30;;;2.34;84.71
50590;BME280;36547;50.514;30.840;2024-01-27T02:17:59;99974.38;;;2.37;84.76
50590;BME280;36547;50.514;30.840;2024-01-27T02:19:03;99970.86;;;2.38;84.74
50590;BME280;36547;50.514;30.840;2024-01-27T02:20:09;99972.68;;;2.34;84.70
50590;BME280;36547;50.514;30.840;2024-01-27T02:21:15;99965.73;;;2.32;84.71
50590;BME280;36547;50.514;30.840;2024-01-27T02:22:19;99970.18;;;2.30;84.81
50590;BME280;36547;50.514;30.840;2024-01-27T02:23:22;99971.05;;;2.30;84.85
50590;BME280;36547;50.514;30.840;2024-01-27T02:24:26;99976.23;;;2.32;84.86
50590;BME280;36547;50.514;30.840;2024-01-27T02:25:31;99971.81;;;2.34;84.80
50590;BME280;36547;50.514;30.840;2024-01-27T02:26:36;99970.06;;;2.34;84.74
50590;BME280;36547;50.514;30.840;2024-01-27T02:27:39;99971.84;;;2.32;84.73
50590;BME280;36547;50.514;30.840;2024-01-27T02:28:43;99978.79;;;2.35;84.75
50590;BME280;36547;50.514;30.840;2024-01-27T02:29:47;99979.68;;;2.34;84.69
50590;BME280;36547;50.514;30.840;2024-01-27T02:30:54;99979.68;;;2.34;84.70
50590;BME280;36547;50.514;30.840;2024-01-27T02:31:57;99983.22;;;2.31;84.75
50590;BME280;36547;50.514;30.840;2024-01-27T02:33:02;99983.20;;;2.33;84.83
50590;BME280;36547;50.514;30.840;2024-01-27T02:34:06;99985.76;;;2.36;84.89
50590;BME280;36547;50.514;30.840;2024-01-27T02:35:09;99984.87;;;2.37;84.83
50590;BME280;36547;50.514;30.840;2024-01-27T02:36:14;99981.41;;;2.35;84.73
50590;BME280;36547;50.514;30.840;2024-01-27T02:37:18;99973.52;;;2.36;84.76
50590;BME280;36547;50.514;30.840;2024-01-27T02:38:22;99983.14;;;2.36;84.73
50590;BME280;36547;50.514;30.840;2024-01-27T02:39:27;99982.19;;;2.40;84.71
50590;BME280;36547;50.514;30.840;2024-01-27T02:40:30;99982.16;;;2.41;84.67
50590;BME280;36547;50.514;30.840;2024-01-27T02:41:34;99979.56;;;2.40;84.61
50590;BME280;36547;50.514;30.840;2024-01-27T02:42:39;99985.70;;;2.39;84.59
50590;BME280;36547;50.514;30.840;2024-01-27T02:43:44;99976.97;;;2.38;84.54
50590;BME280;36547;50.514;30.840;2024-01-27T02:44:50;99983.97;;;2.38;84.59
50590;BME280;36547;50.514;30.840;2024-01-27T02:45:54;99977.84;;;2.39;84.51
50590;BME280;36547;50.514;30.840;2024-01-27T02:47:00;99980.48;;;2.37;84.48
50590;BME280;36547;50.514;30.840;2024-01-27T02:48:11;99985.70;;;2.39;84.53
50590;BME280;36547;50.514;30.840;2024-01-27T02:49:15;99983.14;;;2.36;84.38
50590;BME280;36547;50.514;30.840;2024-01-27T02:50:18;99981.41;;;2.35;84.46
50590;BME280;36547;50.514;30.840;2024-01-27T02:51:25;99983.97;;;2.38;84.54
50590;BME280;36547;50.514;30.840;2024-01-27T02:52:32;99989.25;;;2.36;84.43
50590;BME280;36547;50.514;30.840;2024-01-27T02:53:36;99979.63;;;2.37;84.45
50590;BME280;36547;50.514;30.840;2024-01-27T02:54:40;99981.35;;;2.38;84.45
50590;BME280;36547;50.514;30.840;2024-01-27T02:55:44;99983.97;;;2.38;84.38
50590;BME280;36547;50.514;30.840;2024-01-27T02:56:48;99983.11;;;2.37;84.36
50590;BME280;36547;50.514;30.840;2024-01-27T02:57:52;99986.66;;;2.35;84.37
50590;BME280;36547;50.514;30.840;2024-01-27T02:58:57;99984.87;;;2.37;84.46
50590;BME280;36547;50.514;30.840;2024-01-27T03:00:04;99986.63;;;2.36;84.43
50590;BME280;36547;50.514;30.840;2024-01-27T03:01:11;99984.92;;;2.34;84.37
50590;BME280;36547;50.514;30.840;2024-01-27T03:02:18;99982.30;;;2.34;84.36
50590;BME280;36547;50.514;30.840;2024-01-27T03:03:24;99984.92;;;2.34;84.41
50590;BME280;36547;50.514;30.840;2024-01-27T03:04:27;99992.77;;;2.35;84.40
50590;BME280;36547;50.514;30.840;2024-01-27T03:05:30;99986.66;;;2.35;84.36
50590;BME280;36547;50.514;30.840;2024-01-27T03:06:33;99997.11;;;2.36;84.28
50590;BME280;36547;50.514;30.840;2024-01-27T03:07:37;99991.03;;;2.34;84.19
50590;BME280;36547;50.514;30.840;2024-01-27T03:08:41;99993.69;;;2.33;84.12
50590;BME280;36547;50.514;30.840;2024-01-27T03:09:44;100006.77;;;2.34;84.16
50590;BME280;36547;50.514;30.840;2024-01-27T03:10:48;99995.50;;;2.31;84.22
50590;BME280;36547;50.514;30.840;2024-01-27T03:11:51;100001.67;;;2.28;84.28
50590;BME280;36547;50.514;30.840;2024-01-27T03:12:55;99999.94;;;2.27;84.36
50590;BME280;36547;50.514;30.840;2024-01-27T03:13:58;99999.97;;;2.26;84.45
50590;BME280;36547;50.514;30.840;2024-01-27T03:15:07;100000.83;;;2.26;84.49
50590;BME280;36547;50.514;30.840;2024-01-27T03:16:12;99997.34;;;2.26;84.49
50590;BME280;36547;50.514;30.840;2024-01-27T03:17:15;99996.45;;;2.27;84.51
50590;BME280;36547;50.514;30.840;2024-01-27T03:18:18;100001.72;;;2.25;84.50
50590;BME280;36547;50.514;30.840;2024-01-27T03:19:24;99999.07;;;2.27;84.51
50590;BME280;36547;50.514;30.840;2024-01-27T03:20:28;100005.12;;;2.30;84.56
50590;BME280;36547;50.514;30.840;2024-01-27T03:21:32;99999.88;;;2.30;84.47
50590;BME280;36547;50.514;30.840;2024-01-27T03:22:38;99988.53;;;2.30;84.42
50590;BME280;36547;50.514;30.840;2024-01-27T03:23:42;99998.12;;;2.31;84.37
50590;BME280;36547;50.514;30.840;2024-01-27T03:24:44;99990.26;;;2.31;84.34
50590;BME280;36547;50.514;30.840;2024-01-27T03:25:47;99998.16;;;2.29;84.29
50590;BME280;36547;50.514;30.840;2024-01-27T03:26:50;99991.95;;;2.32;84.35
50590;BME280;36547;50.514;30.840;2024-01-27T03:27:53;99994.55;;;2.33;84.32
50590;BME280;36547;50.514;30.840;2024-01-27T03:28:58;100002.39;;;2.35;84.27
50590;BME280;36547;50.514;30.840;2024-01-27T03:30:02;99988.41;;;2.34;84.22
50590;BME280;36547;50.514;30.840;2024-01-27T03:31:05;99990.11;;;2.37;84.18
50590;BME280;36547;50.514;30.840;2024-01-27T03:32:09;99993.66;;;2.34;84.10
50590;BME280;36547;50.514;30.840;2024-01-27T03:33:12;99997.14;;;2.35;84.12
50590;BME280;36547;50.514;30.840;2024-01-27T03:34:15;99998.92;;;2.33;84.10
50590;BME280;36547;50.514;30.840;2024-01-27T03:35:21;99998.84;;;2.37;84.06
50590;BME280;36547;50.514;30.840;2024-01-27T03:36:26;99991.90;;;2.35;83.99
50590;BME280;36547;50.514;30.840;2024-01-27T03:37:29;99993.69;;;2.33;83.96
50590;BME280;36547;50.514;30.840;2024-01-27T03:38:34;99991.87;;;2.36;83.99
50590;BME280;36547;50.514;30.840;2024-01-27T03:39:46;99998.00;;;2.35;83.95
50590;BME280;36547;50.514;30.840;2024-01-27T03:40:51;99995.36;;;2.37;83.78
50590;BME280;36547;50.514;30.840;2024-01-27T03:41:55;99995.41;;;2.34;83.80
50590;BME280;36547;50.514;30.840;2024-01-27T03:42:59;99991.95;;;2.32;83.85
50590;BME280;36547;50.514;30.840;2024-01-27T03:44:09;99991.16;;;2.30;83.89
50590;BME280;36547;50.514;30.840;2024-01-27T03:45:12;99991.95;;;2.32;83.99
50590;BME280;36547;50.514;30.840;2024-01-27T03:46:15;99986.80;;;2.29;84.03
50590;BME280;36547;50.514;30.840;2024-01-27T03:47:18;99984.20;;;2.27;84.03
50590;BME280;36547;50.514;30.840;2024-01-27T03:48:36;99987.46;;;2.38;84.20
50590;BME280;36547;50.514;30.840;2024-01-27T03:49:38;99986.91;;;2.23;84.33
50590;BME280;36547;50.514;30.840;2024-01-27T03:50:41;99992.99;;;2.25;84.33
50590;BME280;36547;50.514;30.840;2024-01-27T03:51:44;99989.42;;;2.29;84.22
50590;BME280;36547;50.514;30.840;2024-01-27T03:52:46;99997.26;;;2.30;84.11
50590;BME280;36547;50.514;30.840;2024-01-27T03:53:49;99986.80;;;2.29;84.03
50590;BME280;36547;50.514;30.840;2024-01-27T03:54:51;99988.56;;;2.28;84.04
50590;BME280;36547;50.514;30.840;2024-01-27T03:55:55;99992.05;;;2.29;84.07
50590;BME280;36547;50.514;30.840;2024-01-27T03:56:58;99990.31;;;2.28;84.07
50590;BME280;36547;50.514;30.840;2024-01-27T03:58:01;99992.05;;;2.29;84.15
50590;BME280;36547;50.514;30.840;2024-01-27T03:59:03;99986.83;;;2.27;84.02
50590;BME280;36547;50.514;30.840;2024-01-27T04:00:07;99989.54;;;2.23;84.05
50590;BME280;36547;50.514;30.840;2024-01-27T04:01:10;99986.91;;;2.23;84.11
50590;BME280;36547;50.514;30.840;2024-01-27T04:02:12;99992.19;;;2.21;84.11
50590;BME280;36547;50.514;30.840;2024-01-27T04:03:14;99990.43;;;2.22;84.16
50590;BME280;36547;50.514;30.840;2024-01-27T04:04:17;99988.70;;;2.21;84.23
50590;BME280;36547;50.514;30.840;2024-01-27T04:05:20;99991.30;;;2.22;84.24
50590;BME280;36547;50.514;30.840;2024-01-27T04:06:24;99994.75;;;2.24;84.21
50590;BME280;36547;50.514;30.840;2024-01-27T04:07:27;99999.13;;;2.24;84.14
50590;BME280;36547;50.514;30.840;2024-01-27T04:08:31;99988.64;;;2.24;84.16
50590;BME280;36547;50.514;30.840;2024-01-27T04:09:47;99986.63;;;2.36;84.26
50590;BME280;36547;50.514;30.840;2024-01-27T04:10:50;99994.86;;;2.18;84.42
50590;BME280;36547;50.514;30.840;2024-01-27T04:11:53;99990.43;;;2.22;84.35
50590;BME280;36547;50.514;30.840;2024-01-27T04:12:55;99994.78;;;2.23;84.24
50590;BME280;36547;50.514;30.840;2024-01-27T04:13:57;100000.86;;;2.25;84.22
50590;BME280;36547;50.514;30.840;2024-01-27T04:15:00;99993.83;;;2.27;84.17
50590;BME280;36547;50.514;30.840;2024-01-27T04:16:02;100000.00;;;2.24;84.03
50590;BME280;36547;50.514;30.840;2024-01-27T04:17:05;99993.89;;;2.24;84.07
50590;BME280;36547;50.514;30.840;2024-01-27T04:18:07;99989.54;;;2.23;84.10
50590;BME280;36547;50.514;30.840;2024-01-27T04:19:10;99997.38;;;2.24;84.12
50590;BME280;36547;50.514;30.840;2024-01-27T04:20:15;99994.78;;;2.23;84.19
50590;BME280;36547;50.514;30.840;2024-01-27T04:21:18;99992.22;;;2.20;84.23
50590;BME280;36547;50.514;30.840;2024-01-27T04:22:20;99993.05;;;2.22;84.29
50590;BME280;36547;50.514;30.840;2024-01-27T04:23:22;99994.80;;;2.21;84.29
50590;BME280;36547;50.514;30.840;2024-01-27T04:24:25;99991.27;;;2.24;84.26
50590;BME280;36547;50.514;30.840;2024-01-27T04:25:29;99992.99;;;2.25;84.24
50590;BME280;36547;50.514;30.840;2024-01-27T04:26:32;99997.34;;;2.26;84.19
50590;BME280;36547;50.514;30.840;2024-01-27T04:27:37;100003.51;;;2.23;84.18
50590;BME280;36547;50.514;30.840;2024-01-27T04:28:53;99998.92;;;2.33;84.24
50590;BME280;36547;50.514;30.840;2024-01-27T04:29:56;99994.89;;;2.17;84.46
50590;BME280;36547;50.514;30.840;2024-01-27T04:30:58;100001.80;;;2.21;84.49
50590;BME280;36547;50.514;30.840;2024-01-27T04:32:01;99999.13;;;2.24;84.42
50590;BME280;36547;50.514;30.840;2024-01-27T04:33:03;100006.10;;;2.25;84.33
50590;BME280;36547;50.514;30.840;2024-01-27T04:34:06;100000.86;;;2.25;84.28
50590;BME280;36547;50.514;30.840;2024-01-27T04:35:09;100004.38;;;2.24;84.30
50590;BME280;36547;50.514;30.840;2024-01-27T04:36:12;100000.02;;;2.23;84.31
50590;BME280;36547;50.514;30.840;2024-01-27T04:37:15;100003.51;;;2.23;84.36
50590;BME280;36547;50.514;30.840;2024-01-27T04:38:18;100000.02;;;2.23;84.38
50590;BME280;36547;50.514;30.840;2024-01-27T04:39:20;100005.30;;;2.21;84.42
50590;BME280;36547;50.514;30.840;2024-01-27T04:40:23;100005.23;;;2.24;84.49
50590;BME280;36547;50.514;30.840;2024-01-27T04:41:25;100002.56;;;2.27;84.40
50590;BME280;36547;50.514;30.840;2024-01-27T04:42:28;100005.20;;;2.26;84.28
50590;BME280;36547;50.514;30.840;2024-01-27T04:43:30;100011.34;;;2.25;84.26
50590;BME280;36547;50.514;30.840;2024-01-27T04:44:33;100008.70;;;2.26;84.28
50590;BME280;36547;50.514;30.840;2024-01-27T04:45:35;100007.77;;;2.29;84.29
50590;BME280;36547;50.514;30.840;2024-01-27T04:46:38;100000.80;;;2.28;84.11
50590;BME280;36547;50.514;30.840;2024-01-27T04:47:41;100010.45;;;2.26;84.06
50590;BME280;36547;50.514;30.840;2024-01-27T04:48:44;100015.66;;;2.27;84.10
50590;BME280;36547;50.514;30.840;2024-01-27T04:49:46;100007.83;;;2.26;84.11
50590;BME280;36547;50.514;30.840;2024-01-27T04:50:49;100014.80;;;2.27;84.11
50590;BME280;36547;50.514;30.840;2024-01-27T04:51:51;100011.31;;;2.26;84.12
50590;BME280;36547;50.514;30.840;2024-01-27T04:52:54;100013.08;;;2.26;84.13
50590;BME280;36547;50.514;30.840;2024-01-27T04:53:57;100013.08;;;2.26;84.18
50590;BME280;36547;50.514;30.840;2024-01-27T04:54:59;100006.10;;;2.25;84.12
50590;BME280;36547;50.514;30.840;2024-01-27T04:56:02;100009.56;;;2.27;84.13
50590;BME280;36547;50.514;30.840;2024-01-27T04:57:05;100009.61;;;2.24;84.08
50590;BME280;36547;50.514;30.840;2024-01-27T04:58:09;100010.50;;;2.23;84.16
50590;BME280;36547;50.514;30.840;2024-01-27T04:59:11;100021.88;;;2.22;84.18
50590;BME280;36547;50.514;30.840;2024-01-27T05:00:15;100012.30;;;2.21;84.24
50590;BME280;36547;50.514;30.840;2024-01-27T05:01:18;100012.27;;;2.22;84.26
50590;BME280;36547;50.514;30.840;2024-01-27T05:02:20;100014.08;;;2.19;84.22
50590;BME280;36547;50.514;30.840;2024-01-27T05:03:23;100009.67;;;2.21;84.23
50590;BME280;36547;50.514;30.840;2024-01-27T05:04:26;100013.19;;;2.20;84.34
50590;BME280;36547;50.514;30.840;2024-01-27T05:05:28;100019.29;;;2.20;84.38
50590;BME280;36547;50.514;30.840;2024-01-27T05:06:31;100019.27;;;2.22;84.39
50590;BME280;36547;50.514;30.840;2024-01-27T05:07:33;100022.69;;;2.25;84.37
50590;BME280;36547;50.514;30.840;2024-01-27T05:08:36;100023.56;;;2.26;84.25
50590;BME280;36547;50.514;30.840;2024-01-27T05:09:38;100022.66;;;2.27;84.13
50590;BME280;36547;50.514;30.840;2024-01-27T05:10:42;100020.91;;;2.27;84.13
50590;BME280;36547;50.514;30.840;2024-01-27T05:11:44;100022.72;;;2.24;84.09
50590;BME280;36547;50.514;30.840;2024-01-27T05:12:46;100021.88;;;2.22;84.15
50590;BME280;36547;50.514;30.840;2024-01-27T05:13:48;100022.77;;;2.21;84.18
50590;BME280;36547;50.514;30.840;2024-01-27T05:14:51;100023.67;;;2.20;84.20
50590;BME280;36547;50.514;30.840;2024-01-27T05:15:53;100034.16;;;2.20;84.31
50590;BME280;36547;50.514;30.840;2024-01-27T05:16:56;100031.56;;;2.18;84.38
50590;BME280;36547;50.514;30.840;2024-01-27T05:17:58;100028.07;;;2.18;84.44
50590;BME280;36547;50.514;30.840;2024-01-27T05:19:01;100028.96;;;2.17;84.50
50590;BME280;36547;50.514;30.840;2024-01-27T05:20:04;100032.51;;;2.16;84.48
50590;BME280;36547;50.514;30.840;2024-01-27T05:21:06;100036.83;;;2.17;84.46
50590;BME280;36547;50.514;30.840;2024-01-27T05:22:09;100032.45;;;2.17;84.48
50590;BME280;36547;50.514;30.840;2024-01-27T05:23:11;100034.13;;;2.21;84.46
50590;BME280;36547;50.514;30.840;2024-01-27T05:24:14;100034.13;;;2.21;84.47
50590;BME280;36547;50.514;30.840;2024-01-27T05:25:16;100034.98;;;2.22;84.47
50590;BME280;36547;50.514;30.840;2024-01-27T05:26:19;100032.37;;;2.22;84.34
50590;BME280;36547;50.514;30.840;2024-01-27T05:27:23;100035.88;;;2.21;84.31
50590;BME280;36547;50.514;30.840;2024-01-27T05:28:26;100035.88;;;2.21;84.31
50590;BME280;36547;50.514;30.840;2024-01-27T05:29:28;100038.50;;;2.21;84.29
50590;BME280;36547;50.514;30.840;2024-01-27T05:30:31;100041.09;;;2.22;84.32
50590;BME280;36547;50.514;30.840;2024-01-27T05:31:34;100041.07;;;2.24;84.24
50590;BME280;36547;50.514;30.840;2024-01-27T05:32:36;100042.86;;;2.22;84.21
50590;BME280;36547;50.514;30.840;2024-01-27T05:33:39;100041.13;;;2.21;84.21
50590;BME280;36547;50.514;30.840;2024-01-27T05:34:41;100053.39;;;2.19;84.25